Time;durP1;ratioP1;P1;durP2;ratioP2;P2;SDS_P1;SDS_P2;PMS_P1;PMS_P2;Temp;Humidity;BMP_temperature;BMP_pressure;BME280_temperature;BME280_humidity;BME280_pressure;Samples;Min_cycle;Max_cycle;Signal;HPM_P1;HPM_P2
2022/07/16 00:03:12;;;;;;;2.00;1.53;;;;;;;;;;5041483;28;86178;-50
2022/07/16 00:05:41;;;;;;;2.50;1.50;;;;;;;;;;5042946;28;87766;-50
2022/07/16 00:08:09;;;;;;;3.07;1.17;;;;;;;;;;5042679;28;87562;-50
2022/07/16 00:10:37;;;;;;;1.27;1.17;;;;;;;;;;5042447;28;88284;-50
2022/07/16 00:13:06;;;;;;;2.30;1.40;;;;;;;;;;5043188;28;86925;-50
2022/07/16 00:15:34;;;;;;;1.63;1.20;;;;;;;;;;5043024;28;88841;-49
2022/07/16 00:20:54;;;;;;;1.23;0.93;;;;;;;;;;5043395;28;87065;-50
2022/07/16 00:23:22;;;;;;;1.80;1.00;;;;;;;;;;5043102;28;87000;-50
2022/07/16 00:25:53;;;;;;;2.33;1.53;;;;;;;;;;5042749;28;87087;-50
2022/07/16 00:28:21;;;;;;;1.70;1.47;;;;;;;;;;5031149;28;87811;-50
2022/07/16 00:30:51;;;;;;;1.77;0.93;;;;;;;;;;5043031;28;87035;-50
2022/07/16 00:33:21;;;;;;;1.47;1.00;;;;;;;;;;5043000;28;86973;-49
2022/07/16 00:35:49;;;;;;;4.70;1.40;;;;;;;;;;5042851;28;88979;-51
2022/07/16 00:38:19;;;;;;;1.07;0.77;;;;;;;;;;5042639;28;88933;-50
2022/07/16 00:40:47;;;;;;;2.60;1.10;;;;;;;;;;5043179;28;86728;-50
2022/07/16 00:43:16;;;;;;;1.97;0.90;;;;;;;;;;5043352;28;87058;-48
2022/07/16 00:45:46;;;;;;;2.07;0.90;;;;;;;;;;5041652;28;89111;-51
2022/07/16 00:48:14;;;;;;;1.97;1.00;;;;;;;;;;5032739;28;87816;-50
2022/07/16 00:50:44;;;;;;;1.43;0.97;;;;;;;;;;5043086;28;87045;-50
2022/07/16 00:53:13;;;;;;;1.27;0.90;;;;;;;;;;5033559;28;86289;-49
2022/07/16 00:55:42;;;;;;;1.43;1.00;;;;;;;;;;5042017;28;88310;-50
2022/07/16 00:58:11;;;;;;;1.43;0.90;;;;;;;;;;5042563;28;87976;-50
2022/07/16 01:00:39;;;;;;;1.07;0.90;;;;;;;;;;5042426;28;87927;-50
2022/07/16 01:03:07;;;;;;;1.60;0.80;;;;;;;;;;5042003;28;87027;-49
2022/07/16 01:05:38;;;;;;;0.70;0.63;;;;;;;;;;5041914;28;88068;-49
2022/07/16 01:08:06;;;;;;;1.77;0.83;;;;;;;;;;5034427;28;87777;-49
2022/07/16 01:10:35;;;;;;;1.20;1.10;;;;;;;;;;5042875;28;87690;-49
2022/07/16 01:13:07;;;;;;;1.00;0.90;;;;;;;;;;5041875;28;87086;-51
2022/07/16 01:15:35;;;;;;;1.40;0.80;;;;;;;;;;5042494;28;88110;-51
2022/07/16 01:18:05;;;;;;;3.00;1.17;;;;;;;;;;5043083;28;88003;-49
2022/07/16 01:20:33;;;;;;;1.93;1.00;;;;;;;;;;5042704;28;86732;-51
2022/07/16 01:23:01;;;;;;;1.27;0.43;;;;;;;;;;5041529;28;87062;-50
2022/07/16 01:25:31;;;;;;;1.50;1.20;;;;;;;;;;5041736;28;89197;-50
2022/07/16 01:28:02;;;;;;;3.00;0.90;;;;;;;;;;5042124;28;88740;-49
2022/07/16 01:30:32;;;;;;;1.23;0.87;;;;;;;;;;5034881;28;86964;-50
2022/07/16 01:33:00;;;;;;;1.43;0.80;;;;;;;;;;5039556;28;87030;-50
2022/07/16 01:35:29;;;;;;;1.83;0.80;;;;;;;;;;5041949;28;88116;-49
2022/07/16 01:37:59;;;;;;;0.80;0.80;;;;;;;;;;5039312;28;87793;-50
2022/07/16 01:40:28;;;;;;;0.97;0.70;;;;;;;;;;5025689;28;87009;-50
2022/07/16 01:42:57;;;;;;;2.20;0.90;;;;;;;;;;5041824;28;86148;-50
2022/07/16 01:45:26;;;;;;;1.27;1.10;;;;;;;;;;5042289;28;87883;-50
2022/07/16 01:47:56;;;;;;;0.83;0.67;;;;;;;;;;5042002;28;87945;-50
2022/07/16 01:50:25;;;;;;;1.40;0.80;;;;;;;;;;5033197;28;87993;-49
2022/07/16 01:52:53;;;;;;;1.00;0.80;;;;;;;;;;5037236;28;87028;-50
2022/07/16 01:55:21;;;;;;;0.70;0.57;;;;;;;;;;5041320;28;88205;-50
2022/07/16 01:57:49;;;;;;;0.93;0.80;;;;;;;;;;5041920;28;87770;-50
2022/07/16 02:00:19;;;;;;;1.30;0.67;;;;;;;;;;5035592;28;87071;-49
2022/07/16 02:02:49;;;;;;;1.00;0.80;;;;;;;;;;5036690;28;87104;-50
2022/07/16 02:05:17;;;;;;;0.50;0.50;;;;;;;;;;5041097;28;87893;-50
2022/07/16 02:07:48;;;;;;;0.80;0.80;;;;;;;;;;5041357;28;88894;-50
2022/07/16 02:10:16;;;;;;;0.83;0.70;;;;;;;;;;5041611;28;87121;-50
2022/07/16 02:12:48;;;;;;;1.07;0.93;;;;;;;;;;5041835;28;87102;-50
2022/07/16 02:15:17;;;;;;;0.80;0.60;;;;;;;;;;5041008;28;87955;-50
2022/07/16 02:17:47;;;;;;;1.70;0.93;;;;;;;;;;5040648;28;89974;-50
2022/07/16 02:20:17;;;;;;;1.03;0.60;;;;;;;;;;5034394;28;87171;-50
2022/07/16 02:22:47;;;;;;;1.03;0.60;;;;;;;;;;5041613;28;87237;-49
2022/07/16 02:25:15;;;;;;;0.83;0.77;;;;;;;;;;5038791;28;88283;-50
2022/07/16 02:30:26;;;;;;;1.07;0.57;;;;;;;;;;5044051;28;87027;-50
2022/07/16 02:32:55;;;;;;;0.50;0.50;;;;;;;;;;5045400;28;86204;-50
2022/07/16 02:35:24;;;;;;;0.90;0.50;;;;;;;;;;5040237;28;87161;-50
2022/07/16 02:37:52;;;;;;;0.80;0.80;;;;;;;;;;5039702;28;88851;-50
2022/07/16 02:40:21;;;;;;;1.63;0.60;;;;;;;;;;5044283;27;88337;-50
2022/07/16 02:42:49;;;;;;;0.67;0.67;;;;;;;;;;5045260;28;86784;-50
2022/07/16 02:45:18;;;;;;;0.63;0.63;;;;;;;;;;5041717;28;88693;-49
2022/07/16 02:47:49;;;;;;;0.60;0.60;;;;;;;;;;5039642;28;87955;-50
2022/07/16 02:50:21;;;;;;;0.67;0.50;;;;;;;;;;5044568;28;86959;-50
2022/07/16 02:52:49;;;;;;;0.50;0.50;;;;;;;;;;5044720;28;86718;-50
2022/07/16 02:55:18;;;;;;;0.73;0.70;;;;;;;;;;5043749;28;88081;-50
2022/07/16 02:57:48;;;;;;;1.73;0.60;;;;;;;;;;5044921;28;88865;-50
2022/07/16 03:00:17;;;;;;;0.70;0.60;;;;;;;;;;5045179;28;86961;-50
2022/07/16 03:02:45;;;;;;;0.60;0.50;;;;;;;;;;5045089;27;87077;-50
2022/07/16 03:05:13;;;;;;;0.83;0.60;;;;;;;;;;5035547;28;89010;-50
2022/07/16 03:07:43;;;;;;;0.87;0.50;;;;;;;;;;5044545;28;89971;-50
2022/07/16 03:10:12;;;;;;;0.37;0.37;;;;;;;;;;5043831;28;87033;-50
2022/07/16 03:12:42;;;;;;;0.87;0.57;;;;;;;;;;5044800;28;87016;-50
2022/07/16 03:15:17;;;;;;;0.77;0.70;;;;;;;;;;5036179;28;86902;-50
2022/07/16 03:17:45;;;;;;;0.70;0.63;;;;;;;;;;5043193;28;87860;-49
2022/07/16 03:20:14;;;;;;;0.60;0.60;;;;;;;;;;5043915;28;86959;-50
2022/07/16 03:22:48;;;;;;;0.70;0.70;;;;;;;;;;5044548;27;86279;-50
2022/07/16 03:25:20;;;;;;;0.80;0.40;;;;;;;;;;5034163;28;89366;-50
2022/07/16 03:27:48;;;;;;;1.00;0.63;;;;;;;;;;5063693;27;88983;-50
2022/07/16 03:30:17;;;;;;;0.60;0.47;;;;;;;;;;5041965;27;87936;-50
2022/07/16 03:32:48;;;;;;;0.53;0.53;;;;;;;;;;5044247;28;87061;-50
2022/07/16 03:35:17;;;;;;;1.20;0.53;;;;;;;;;;5037690;28;88051;-50
2022/07/16 03:40:34;;;;;;;1.10;0.50;;;;;;;;;;5018466;28;87106;-49
2022/07/16 03:43:02;;;;;;;2.27;1.00;;;;;;;;;;5037743;28;87175;-49
2022/07/16 03:45:33;;;;;;;1.47;0.53;;;;;;;;;;5039709;28;89041;-51
2022/07/16 03:48:01;;;;;;;0.60;0.60;;;;;;;;;;5033029;28;87992;-51
2022/07/16 03:50:32;;;;;;;0.70;0.70;;;;;;;;;;5035514;28;87096;-52
2022/07/16 03:53:02;;;;;;;2.20;0.63;;;;;;;;;;5045657;27;87131;-50
2022/07/16 03:55:32;;;;;;;0.57;0.57;;;;;;;;;;5042120;28;90338;-52
2022/07/16 03:58:00;;;;;;;0.50;0.50;;;;;;;;;;5043475;28;89036;-51
2022/07/16 04:00:32;;;;;;;0.50;0.50;;;;;;;;;;5039537;28;86830;-52
2022/07/16 04:03:08;;;;;;;1.80;0.80;;;;;;;;;;5040160;28;87075;-51
2022/07/16 04:05:37;;;;;;;1.97;0.90;;;;;;;;;;5038521;28;88930;-50
2022/07/16 04:08:10;;;;;;;1.73;0.80;;;;;;;;;;5034483;28;87811;-50
2022/07/16 04:10:39;;;;;;;1.30;0.90;;;;;;;;;;5043150;28;87069;-51
2022/07/16 04:13:08;;;;;;;0.97;0.77;;;;;;;;;;5030084;27;86827;-49
2022/07/16 04:15:37;;;;;;;1.70;1.03;;;;;;;;;;5035491;28;88082;-51
2022/07/16 04:18:09;;;;;;;1.30;1.20;;;;;;;;;;5042660;28;87258;-50
2022/07/16 04:20:38;;;;;;;2.13;1.33;;;;;;;;;;5041999;28;87968;-50
2022/07/16 04:23:07;;;;;;;1.17;1.07;;;;;;;;;;5043816;27;86988;-51
2022/07/16 04:25:36;;;;;;;1.57;1.27;;;;;;;;;;5062963;27;89185;-51
2022/07/16 04:28:06;;;;;;;1.87;1.20;;;;;;;;;;5063172;27;89145;-50
2022/07/16 04:30:34;;;;;;;3.40;1.80;;;;;;;;;;5062550;27;86847;-50
2022/07/16 04:33:04;;;;;;;2.47;1.53;;;;;;;;;;5063973;27;87106;-49
2022/07/16 04:35:35;;;;;;;1.83;1.30;;;;;;;;;;5063194;27;88142;-50
2022/07/16 04:38:05;;;;;;;3.97;2.00;;;;;;;;;;5063246;27;87820;-50
2022/07/16 04:40:34;;;;;;;4.03;2.67;;;;;;;;;;5050653;27;87021;-51
2022/07/16 04:43:03;;;;;;;3.80;2.17;;;;;;;;;;5041493;28;87061;-50
2022/07/16 04:45:31;;;;;;;3.67;2.40;;;;;;;;;;5041716;28;89121;-50
2022/07/16 04:47:59;;;;;;;4.33;2.53;;;;;;;;;;5034760;27;89793;-52
2022/07/16 04:50:28;;;;;;;2.90;2.47;;;;;;;;;;5025557;28;87112;-54
2022/07/16 04:52:56;;;;;;;2.60;2.00;;;;;;;;;;5036111;28;87138;-50
2022/07/16 04:55:24;;;;;;;5.57;2.40;;;;;;;;;;5030167;28;88198;-51
2022/07/16 04:57:54;;;;;;;2.80;2.50;;;;;;;;;;5037306;28;88999;-51
2022/07/16 05:00:26;;;;;;;3.33;2.33;;;;;;;;;;5034447;28;87140;-51
2022/07/16 05:02:57;;;;;;;3.53;2.13;;;;;;;;;;5037330;28;86301;-51
2022/07/16 05:05:27;;;;;;;3.73;2.90;;;;;;;;;;5037023;28;88247;-50
2022/07/16 05:07:55;;;;;;;4.17;2.57;;;;;;;;;;5045893;27;87978;-52
2022/07/16 05:10:24;;;;;;;4.27;2.53;;;;;;;;;;5037879;28;88061;-51
2022/07/16 05:12:52;;;;;;;3.50;1.87;;;;;;;;;;5037050;28;87055;-52
2022/07/16 05:15:24;;;;;;;2.67;2.10;;;;;;;;;;5041630;28;88014;-52
2022/07/16 05:17:54;;;;;;;3.43;2.23;;;;;;;;;;5041487;28;88019;-51
2022/07/16 05:20:27;;;;;;;6.30;2.70;;;;;;;;;;5035537;28;87088;-52
2022/07/16 05:22:57;;;;;;;2.50;1.90;;;;;;;;;;5040078;28;87113;-51
2022/07/16 05:25:29;;;;;;;3.50;2.20;;;;;;;;;;5034160;28;88161;-50
2022/07/16 05:27:58;;;;;;;2.30;1.70;;;;;;;;;;5028338;28;87766;-52
2022/07/16 05:30:29;;;;;;;3.63;2.20;;;;;;;;;;5041461;28;86913;-50
2022/07/16 05:32:57;;;;;;;3.70;1.93;;;;;;;;;;5034638;28;87092;-51
2022/07/16 05:35:26;;;;;;;2.93;1.73;;;;;;;;;;5040367;28;90111;-50
2022/07/16 05:37:55;;;;;;;3.90;1.77;;;;;;;;;;5037742;28;88863;-50
2022/07/16 05:40:23;;;;;;;1.73;1.30;;;;;;;;;;5040765;28;87292;-50
2022/07/16 05:42:52;;;;;;;2.17;1.20;;;;;;;;;;5040970;27;86865;-50
2022/07/16 05:45:20;;;;;;;1.20;1.10;;;;;;;;;;5040708;28;87024;-49
2022/07/16 05:47:50;;;;;;;6.33;1.23;;;;;;;;;;5041208;28;88854;-50
2022/07/16 05:50:22;;;;;;;1.33;0.80;;;;;;;;;;5038201;28;87085;-50
2022/07/16 05:52:52;;;;;;;1.30;0.73;;;;;;;;;;5037077;28;86325;-50
2022/07/16 05:55:20;;;;;;;0.87;0.70;;;;;;;;;;5041519;28;88282;-52
2022/07/16 05:57:49;;;;;;;0.67;0.67;;;;;;;;;;5035231;27;88834;-50
2022/07/16 06:00:19;;;;;;;0.90;0.60;;;;;;;;;;5040099;27;87945;-50
2022/07/16 06:02:48;;;;;;;0.73;0.60;;;;;;;;;;5040039;28;87015;-51
2022/07/16 06:05:18;;;;;;;1.00;0.60;;;;;;;;;;5033931;28;88047;-50
2022/07/16 06:07:49;;;;;;;0.70;0.70;;;;;;;;;;5039037;28;88898;-50
2022/07/16 06:10:17;;;;;;;4.93;0.90;;;;;;;;;;5026480;28;86936;-51
2022/07/16 06:12:46;;;;;;;0.70;0.70;;;;;;;;;;5039805;28;87047;-53
2022/07/16 06:15:14;;;;;;;1.40;0.73;;;;;;;;;;5046443;27;89318;-52
2022/07/16 06:17:48;;;;;;;0.87;0.67;;;;;;;;;;5038008;27;87839;-51
2022/07/16 06:20:18;;;;;;;1.40;0.70;;;;;;;;;;5051098;27;86973;-51
2022/07/16 06:22:46;;;;;;;2.00;0.50;;;;;;;;;;5039574;28;87149;-50
2022/07/16 06:25:15;;;;;;;0.77;0.77;;;;;;;;;;5040154;28;89133;-51
2022/07/16 06:27:43;;;;;;;2.40;0.80;;;;;;;;;;5037174;28;88750;-51
2022/07/16 06:30:13;;;;;;;0.53;0.53;;;;;;;;;;5040908;28;86980;-51
2022/07/16 06:32:43;;;;;;;2.47;1.00;;;;;;;;;;5032811;28;87838;-51
2022/07/16 06:35:11;;;;;;;1.43;0.80;;;;;;;;;;5035465;28;89111;-52
2022/07/16 06:37:41;;;;;;;0.60;0.60;;;;;;;;;;5036577;28;87883;-51
2022/07/16 06:40:10;;;;;;;2.33;0.83;;;;;;;;;;5038205;28;87417;-52
2022/07/16 06:42:38;;;;;;;0.67;0.67;;;;;;;;;;5033970;28;86423;-53
2022/07/16 06:45:07;;;;;;;2.10;0.73;;;;;;;;;;5040893;28;89342;-51
2022/07/16 06:47:37;;;;;;;1.27;0.60;;;;;;;;;;5037423;28;89103;-51
2022/07/16 06:50:08;;;;;;;2.20;0.70;;;;;;;;;;5040003;28;87693;-51
2022/07/16 06:52:41;;;;;;;0.50;0.50;;;;;;;;;;5038994;28;87068;-51
2022/07/16 06:55:10;;;;;;;5.00;0.60;;;;;;;;;;5039570;28;89358;-51
2022/07/16 06:57:38;;;;;;;1.70;0.60;;;;;;;;;;5040368;28;87096;-49
2022/07/16 07:00:09;;;;;;;0.80;0.80;;;;;;;;;;5044702;27;87089;-49
2022/07/16 07:02:40;;;;;;;0.60;0.60;;;;;;;;;;5056901;27;87125;-49
2022/07/16 07:05:15;;;;;;;0.80;0.80;;;;;;;;;;5050667;27;88366;-49
2022/07/16 07:07:48;;;;;;;1.67;0.50;;;;;;;;;;5040957;28;87731;-49
2022/07/16 07:10:20;;;;;;;0.77;0.70;;;;;;;;;;5041240;27;86990;-49
2022/07/16 07:12:48;;;;;;;0.50;0.43;;;;;;;;;;5044531;28;87114;-49
2022/07/16 07:15:16;;;;;;;1.70;0.63;;;;;;;;;;5043893;28;90191;-49
2022/07/16 07:17:46;;;;;;;2.27;0.73;;;;;;;;;;5051016;27;89802;-49
2022/07/16 07:20:16;;;;;;;1.23;0.90;;;;;;;;;;5064694;27;87158;-49
2022/07/16 07:22:54;;;;;;;1.77;0.60;;;;;;;;;;5045215;27;87012;-50
2022/07/16 07:25:24;;;;;;;1.50;0.70;;;;;;;;;;5033704;28;88171;-49
2022/07/16 07:27:52;;;;;;;2.10;0.50;;;;;;;;;;5043724;28;87717;-50
2022/07/16 07:30:20;;;;;;;0.40;0.30;;;;;;;;;;5041931;28;87195;-48
2022/07/16 07:32:48;;;;;;;0.40;0.40;;;;;;;;;;5041888;28;86219;-48
2022/07/16 07:35:19;;;;;;;0.60;0.60;;;;;;;;;;5039205;28;89185;-49
2022/07/16 07:37:48;;;;;;;0.40;0.40;;;;;;;;;;5036165;28;89107;-48
2022/07/16 07:40:17;;;;;;;0.83;0.60;;;;;;;;;;5043373;28;88067;-49
2022/07/16 07:42:46;;;;;;;0.87;0.43;;;;;;;;;;5044096;28;87095;-48
2022/07/16 07:45:15;;;;;;;1.90;0.50;;;;;;;;;;5044073;28;88191;-48
2022/07/16 07:47:45;;;;;;;0.67;0.30;;;;;;;;;;5043547;28;87819;-48
2022/07/16 07:50:14;;;;;;;0.30;0.30;;;;;;;;;;5043899;27;87022;-48
2022/07/16 07:52:42;;;;;;;0.60;0.60;;;;;;;;;;5042802;28;86969;-48
2022/07/16 07:55:10;;;;;;;1.40;0.70;;;;;;;;;;5036706;28;87123;-48
2022/07/16 07:57:38;;;;;;;6.33;0.67;;;;;;;;;;5040637;28;87802;-48
2022/07/16 08:00:15;;;;;;;0.40;0.40;;;;;;;;;;5037206;28;86784;-48
2022/07/16 08:02:44;;;;;;;0.53;0.53;;;;;;;;;;5036659;28;87147;-48
2022/07/16 08:05:13;;;;;;;0.87;0.50;;;;;;;;;;5039756;28;90029;-48
2022/07/16 08:07:41;;;;;;;1.00;0.50;;;;;;;;;;5042379;28;87632;-47
2022/07/16 08:10:10;;;;;;;0.50;0.50;;;;;;;;;;5043106;28;86953;-48
2022/07/16 08:12:38;;;;;;;0.70;0.63;;;;;;;;;;5043006;28;87190;-48
2022/07/16 08:15:09;;;;;;;1.67;0.67;;;;;;;;;;5041912;28;88237;-48
2022/07/16 08:17:38;;;;;;;1.23;0.83;;;;;;;;;;5041993;28;87897;-47
2022/07/16 08:20:09;;;;;;;0.80;0.50;;;;;;;;;;5042832;28;86992;-48
2022/07/16 08:22:42;;;;;;;0.60;0.60;;;;;;;;;;5042224;27;86333;-48
2022/07/16 08:27:58;;;;;;;1.53;0.60;;;;;;;;;;5041175;28;87036;-48
2022/07/16 08:30:28;;;;;;;1.23;0.67;;;;;;;;;;5012978;28;87759;-48
2022/07/16 08:32:56;;;;;;;1.30;0.40;;;;;;;;;;5022682;28;86954;-48
2022/07/16 08:35:26;;;;;;;2.43;0.77;;;;;;;;;;5022555;28;88080;-48
2022/07/16 08:37:54;;;;;;;1.40;0.80;;;;;;;;;;5022387;28;87069;-48
2022/07/16 08:40:23;;;;;;;1.27;0.60;;;;;;;;;;5022794;28;86986;-48
2022/07/16 08:42:52;;;;;;;0.87;0.63;;;;;;;;;;5022731;28;86982;-48
2022/07/16 08:45:24;;;;;;;0.93;0.57;;;;;;;;;;5022724;28;89015;-48
2022/07/16 08:47:54;;;;;;;0.40;0.40;;;;;;;;;;5023016;28;86651;-49
2022/07/16 08:50:23;;;;;;;0.47;0.47;;;;;;;;;;5022503;28;86868;-48
2022/07/16 08:52:56;;;;;;;1.27;0.53;;;;;;;;;;5022330;28;87042;-48
2022/07/16 08:55:24;;;;;;;0.50;0.50;;;;;;;;;;5021690;28;90202;-48
2022/07/16 08:57:53;;;;;;;0.90;0.53;;;;;;;;;;5022035;28;88889;-47
2022/07/16 09:00:22;;;;;;;0.73;0.50;;;;;;;;;;5021752;28;86915;-48
2022/07/16 09:02:50;;;;;;;0.60;0.60;;;;;;;;;;5022224;28;87034;-49
2022/07/16 09:05:20;;;;;;;0.33;0.33;;;;;;;;;;5021954;28;89124;-48
2022/07/16 09:07:48;;;;;;;0.53;0.50;;;;;;;;;;5021812;28;88091;-48
2022/07/16 09:10:18;;;;;;;0.93;0.50;;;;;;;;;;5022426;28;87034;-49
2022/07/16 09:12:47;;;;;;;0.93;0.40;;;;;;;;;;5022294;28;86318;-48
2022/07/16 09:15:29;;;;;;;0.50;0.40;;;;;;;;;;5021023;28;88329;-48
2022/07/16 09:18:07;;;;;;;0.87;0.50;;;;;;;;;;5022215;28;87869;-48
2022/07/16 09:20:39;;;;;;;1.23;0.67;;;;;;;;;;5021897;28;87680;-48
2022/07/16 09:23:21;;;;;;;1.30;0.53;;;;;;;;;;5022104;28;86925;-48
2022/07/16 09:25:50;;;;;;;0.60;0.43;;;;;;;;;;5021459;28;89085;-48
2022/07/16 09:28:19;;;;;;;0.60;0.57;;;;;;;;;;5021172;28;87783;-50
2022/07/16 09:30:47;;;;;;;2.00;0.67;;;;;;;;;;5021886;28;87020;-49
2022/07/16 09:33:16;;;;;;;0.80;0.53;;;;;;;;;;5021711;28;86919;-48
2022/07/16 09:35:46;;;;;;;2.13;1.07;;;;;;;;;;5021280;28;87078;-48
2022/07/16 09:38:17;;;;;;;2.00;0.70;;;;;;;;;;5021989;28;87952;-49
2022/07/16 09:40:46;;;;;;;1.20;0.70;;;;;;;;;;5021878;28;86726;-50
2022/07/16 09:43:18;;;;;;;0.73;0.67;;;;;;;;;;5021935;28;86972;-48
2022/07/16 09:45:47;;;;;;;2.17;0.53;;;;;;;;;;5020052;28;89379;-48
2022/07/16 09:48:21;;;;;;;0.47;0.47;;;;;;;;;;5020836;28;88783;-49
2022/07/16 09:50:52;;;;;;;0.97;0.90;;;;;;;;;;5021979;28;86938;-49
2022/07/16 09:53:21;;;;;;;1.33;1.17;;;;;;;;;;5021366;28;87068;-49
2022/07/16 09:56:03;;;;;;;2.03;1.07;;;;;;;;;;5021263;28;89207;-49
2022/07/16 09:58:33;;;;;;;3.33;1.00;;;;;;;;;;5020893;28;87951;-49
2022/07/16 10:01:02;;;;;;;1.47;0.90;;;;;;;;;;5021404;28;86991;-47
2022/07/16 10:03:35;;;;;;;2.43;1.13;;;;;;;;;;5022568;28;86197;-47
2022/07/16 10:06:04;;;;;;;1.93;0.83;;;;;;;;;;5020785;28;88120;-46
2022/07/16 10:08:33;;;;;;;2.80;1.00;;;;;;;;;;5020812;28;87011;-48
2022/07/16 10:11:01;;;;;;;1.63;0.90;;;;;;;;;;5020386;28;87972;-47
2022/07/16 10:13:30;;;;;;;1.27;0.83;;;;;;;;;;5021476;28;87075;-48
2022/07/16 10:15:58;;;;;;;1.50;0.63;;;;;;;;;;5020872;28;88107;-48
2022/07/16 10:18:33;;;;;;;0.70;0.67;;;;;;;;;;5020180;28;89162;-48
2022/07/16 10:21:08;;;;;;;1.20;0.80;;;;;;;;;;5021215;28;86914;-48
2022/07/16 10:23:40;;;;;;;3.67;0.90;;;;;;;;;;5021228;28;86889;-48
2022/07/16 10:26:16;;;;;;;1.30;0.90;;;;;;;;;;5020739;28;88170;-48
2022/07/16 10:28:46;;;;;;;2.93;1.40;;;;;;;;;;5021351;28;86445;-48
2022/07/16 10:31:35;;;;;;;2.50;1.07;;;;;;;;;;5021211;28;87088;-49
2022/07/16 10:34:27;;;;;;;2.40;1.13;;;;;;;;;;5021299;28;87017;-49
2022/07/16 10:36:57;;;;;;;1.27;0.73;;;;;;;;;;5019828;28;89070;-47
2022/07/16 10:39:25;;;;;;;1.50;1.00;;;;;;;;;;5020720;28;89964;-47
2022/07/16 10:41:57;;;;;;;1.60;0.53;;;;;;;;;;5021038;28;86914;-48
2022/07/16 10:44:27;;;;;;;1.20;0.67;;;;;;;;;;5019520;28;87532;-48
2022/07/16 10:46:56;;;;;;;3.50;0.80;;;;;;;;;;5022310;28;88110;-48
2022/07/16 10:49:24;;;;;;;1.27;0.50;;;;;;;;;;5024258;28;87935;-49
2022/07/16 10:51:57;;;;;;;3.53;0.80;;;;;;;;;;5024287;28;87012;-49
2022/07/16 10:54:28;;;;;;;3.60;0.90;;;;;;;;;;5023832;28;86462;-48
2022/07/16 10:56:57;;;;;;;2.33;1.00;;;;;;;;;;5024389;28;88095;-48
2022/07/16 10:59:30;;;;;;;0.83;0.50;;;;;;;;;;5024109;28;87755;-48
2022/07/16 11:02:01;;;;;;;0.63;0.50;;;;;;;;;;5023639;28;87842;-48
2022/07/16 11:04:34;;;;;;;1.00;0.80;;;;;;;;;;5024454;28;86878;-48
2022/07/16 11:07:05;;;;;;;1.20;0.50;;;;;;;;;;5004527;28;89199;-47
2022/07/16 11:09:33;;;;;;;0.73;0.30;;;;;;;;;;5004249;28;87883;-48
2022/07/16 11:12:09;;;;;;;0.43;0.43;;;;;;;;;;5004155;28;87030;-48
2022/07/16 11:14:39;;;;;;;1.10;0.70;;;;;;;;;;5003755;28;86895;-48
2022/07/16 11:17:08;;;;;;;2.23;1.00;;;;;;;;;;5003759;28;88151;-48
2022/07/16 11:19:38;;;;;;;0.80;0.57;;;;;;;;;;5003845;28;87837;-48
2022/07/16 11:22:12;;;;;;;0.57;0.50;;;;;;;;;;5004235;28;86766;-48
2022/07/16 11:24:47;;;;;;;0.70;0.70;;;;;;;;;;5004195;28;87088;-48
2022/07/16 11:27:15;;;;;;;1.20;0.73;;;;;;;;;;5002618;28;90001;-48
2022/07/16 11:29:46;;;;;;;1.53;0.43;;;;;;;;;;5003553;28;88725;-48
2022/07/16 11:32:16;;;;;;;0.97;0.60;;;;;;;;;;5003831;28;87113;-48
2022/07/16 11:34:44;;;;;;;1.00;0.70;;;;;;;;;;5003882;28;86917;-48
2022/07/16 11:37:15;;;;;;;1.33;0.40;;;;;;;;;;5003174;28;89178;-48
2022/07/16 11:39:44;;;;;;;0.90;0.60;;;;;;;;;;5003579;28;87646;-48
2022/07/16 11:42:12;;;;;;;0.50;0.50;;;;;;;;;;5003986;28;87074;-48
2022/07/16 11:44:41;;;;;;;2.27;0.53;;;;;;;;;;5004477;28;86227;-48
2022/07/16 11:47:14;;;;;;;0.83;0.40;;;;;;;;;;5003500;28;88188;-48
2022/07/16 11:49:44;;;;;;;1.93;0.53;;;;;;;;;;5003275;28;87941;-48
2022/07/16 11:52:22;;;;;;;0.63;0.60;;;;;;;;;;5003478;28;87886;-48
2022/07/16 11:54:51;;;;;;;0.93;0.70;;;;;;;;;;5004010;28;86860;-48
2022/07/16 11:57:22;;;;;;;0.70;0.47;;;;;;;;;;5001089;28;87131;-48
2022/07/16 11:59:53;;;;;;;0.33;0.33;;;;;;;;;;5003127;28;86985;-48
2022/07/16 12:02:26;;;;;;;0.83;0.37;;;;;;;;;;5003023;28;87017;-48
2022/07/16 12:04:57;;;;;;;2.10;0.50;;;;;;;;;;5003135;28;87004;-48
2022/07/16 12:07:33;;;;;;;0.37;0.37;;;;;;;;;;5022939;28;89141;-48
2022/07/16 12:10:04;;;;;;;1.00;0.47;;;;;;;;;;5023485;28;88859;-48
2022/07/16 12:12:34;;;;;;;0.93;0.63;;;;;;;;;;5023129;28;87027;-48
2022/07/16 12:15:02;;;;;;;0.53;0.53;;;;;;;;;;5023171;28;86898;-47
2022/07/16 12:17:42;;;;;;;0.93;0.50;;;;;;;;;;5022214;28;89226;-49
2022/07/16 12:20:15;;;;;;;1.10;0.70;;;;;;;;;;5022937;28;88853;-48
2022/07/16 12:22:58;;;;;;;3.13;0.50;;;;;;;;;;5023060;28;86920;-48
2022/07/16 12:25:34;;;;;;;2.63;0.60;;;;;;;;;;5023342;28;87012;-48
2022/07/16 12:28:05;;;;;;;2.87;0.50;;;;;;;;;;5022949;28;88099;-48
2022/07/16 12:30:35;;;;;;;0.67;0.57;;;;;;;;;;5022472;28;86962;-48
2022/07/16 12:33:05;;;;;;;3.10;0.57;;;;;;;;;;5023206;28;87016;-48
2022/07/16 12:35:44;;;;;;;0.40;0.40;;;;;;;;;;5022864;28;86360;-48
2022/07/16 12:38:44;;;;;;;0.60;0.50;;;;;;;;;;5022582;28;89110;-48
2022/07/16 12:41:15;;;;;;;1.13;0.80;;;;;;;;;;4980545;28;87077;-48
2022/07/16 12:43:47;;;;;;;0.60;0.57;;;;;;;;;;5014287;28;88131;-47
2022/07/16 12:46:16;;;;;;;0.40;0.40;;;;;;;;;;5022715;28;86960;-47
2022/07/16 12:48:45;;;;;;;0.63;0.50;;;;;;;;;;5022329;28;87862;-47
2022/07/16 12:51:16;;;;;;;0.50;0.50;;;;;;;;;;5022212;28;89066;-47
2022/07/16 12:53:46;;;;;;;1.27;0.60;;;;;;;;;;5022979;28;86989;-47
2022/07/16 12:59:04;;;;;;;1.00;0.87;;;;;;;;;;5022224;28;88087;-49
2022/07/16 13:01:33;;;;;;;0.40;0.40;;;;;;;;;;5022631;28;87937;-49
2022/07/16 13:04:01;;;;;;;1.03;0.60;;;;;;;;;;5022849;28;87054;-50
2022/07/16 13:06:35;;;;;;;1.77;0.63;;;;;;;;;;5022408;28;87070;-50
2022/07/16 13:09:04;;;;;;;0.97;0.70;;;;;;;;;;5021530;28;89203;-47
2022/07/16 13:11:34;;;;;;;1.87;0.77;;;;;;;;;;5022273;28;88689;-48
2022/07/16 13:14:03;;;;;;;1.10;1.00;;;;;;;;;;5022440;28;86954;-48
2022/07/16 13:16:31;;;;;;;0.87;0.70;;;;;;;;;;5022379;28;86952;-48
2022/07/16 13:19:00;;;;;;;0.80;0.70;;;;;;;;;;5021512;28;89250;-48
2022/07/16 13:21:28;;;;;;;2.43;0.87;;;;;;;;;;5022260;28;86706;-48
2022/07/16 13:23:57;;;;;;;1.40;0.87;;;;;;;;;;5022610;28;86921;-48
2022/07/16 13:26:26;;;;;;;0.67;0.57;;;;;;;;;;5022648;28;86394;-48
2022/07/16 13:28:57;;;;;;;1.67;0.80;;;;;;;;;;5021989;28;88064;-48
2022/07/16 13:31:25;;;;;;;0.67;0.57;;;;;;;;;;5021755;28;88897;-48
2022/07/16 13:34:01;;;;;;;0.87;0.70;;;;;;;;;;5021469;28;87974;-48
2022/07/16 13:36:29;;;;;;;0.83;0.60;;;;;;;;;;5022292;28;86953;-48
2022/07/16 13:38:57;;;;;;;0.43;0.43;;;;;;;;;;5021768;28;88132;-48
2022/07/16 13:41:37;;;;;;;0.63;0.50;;;;;;;;;;5021944;28;88917;-48
2022/07/16 13:44:07;;;;;;;1.83;0.90;;;;;;;;;;5022315;28;87009;-48
2022/07/16 13:46:41;;;;;;;0.50;0.50;;;;;;;;;;5022124;28;86961;-48
2022/07/16 13:49:09;;;;;;;1.10;0.60;;;;;;;;;;5021773;28;87056;-50
2022/07/16 13:51:37;;;;;;;0.70;0.57;;;;;;;;;;5022034;28;86563;-48
2022/07/16 13:54:13;;;;;;;0.50;0.50;;;;;;;;;;5021076;28;87037;-48
2022/07/16 13:56:49;;;;;;;0.50;0.30;;;;;;;;;;5021678;28;87036;-48
2022/07/16 13:59:19;;;;;;;0.93;0.80;;;;;;;;;;5021240;28;89196;-48
2022/07/16 14:01:48;;;;;;;0.53;0.40;;;;;;;;;;5021478;28;88901;-48
2022/07/16 14:04:17;;;;;;;0.90;0.50;;;;;;;;;;5021790;28;86796;-48
2022/07/16 14:06:46;;;;;;;0.20;0.20;;;;;;;;;;5020830;28;87012;-48
2022/07/16 14:09:14;;;;;;;3.83;0.70;;;;;;;;;;5020887;28;88020;-48
2022/07/16 14:11:45;;;;;;;2.10;0.50;;;;;;;;;;5021215;28;88962;-48
2022/07/16 14:14:13;;;;;;;1.40;0.50;;;;;;;;;;5021315;28;86993;-48
2022/07/16 14:16:45;;;;;;;1.30;0.50;;;;;;;;;;5022081;28;86220;-48
2022/07/16 14:19:21;;;;;;;0.87;0.50;;;;;;;;;;5021159;28;89240;-48
2022/07/16 14:21:49;;;;;;;0.97;0.33;;;;;;;;;;5023492;28;88914;-47
2022/07/16 14:24:17;;;;;;;0.40;0.40;;;;;;;;;;5024515;28;87765;-48
2022/07/16 14:26:48;;;;;;;0.30;0.30;;;;;;;;;;5024525;28;86939;-48
2022/07/16 14:29:16;;;;;;;0.87;0.30;;;;;;;;;;5024247;28;88078;-48
2022/07/16 14:31:47;;;;;;;0.37;0.37;;;;;;;;;;5024870;28;88339;-48
2022/07/16 14:34:15;;;;;;;1.00;0.53;;;;;;;;;;5025208;28;87058;-49
2022/07/16 14:36:44;;;;;;;0.93;0.53;;;;;;;;;;5024996;28;86980;-48
2022/07/16 14:39:15;;;;;;;1.60;0.90;;;;;;;;;;5024243;28;89076;-48
2022/07/16 14:41:45;;;;;;;1.20;0.60;;;;;;;;;;5025204;28;87578;-48
2022/07/16 14:44:13;;;;;;;1.80;0.70;;;;;;;;;;5025089;28;86960;-48
2022/07/16 14:46:41;;;;;;;3.23;0.80;;;;;;;;;;5024601;28;86965;-48
2022/07/16 14:49:11;;;;;;;1.20;0.70;;;;;;;;;;5024118;28;90163;-48
2022/07/16 14:51:40;;;;;;;0.90;0.67;;;;;;;;;;5024415;28;87441;-48
2022/07/16 14:54:10;;;;;;;0.67;0.67;;;;;;;;;;5024496;28;86915;-50
2022/07/16 14:56:39;;;;;;;1.23;0.80;;;;;;;;;;5024376;28;87072;-49
2022/07/16 14:59:09;;;;;;;1.43;0.90;;;;;;;;;;5024159;28;88147;-48
2022/07/16 15:01:40;;;;;;;0.67;0.50;;;;;;;;;;5023748;28;87875;-48
2022/07/16 15:04:09;;;;;;;1.93;0.70;;;;;;;;;;5024425;28;87195;-48
2022/07/16 15:06:43;;;;;;;0.93;0.43;;;;;;;;;;5024542;28;86217;-48
2022/07/16 15:09:12;;;;;;;1.83;0.30;;;;;;;;;;5023707;28;88210;-48
2022/07/16 15:11:40;;;;;;;1.43;0.90;;;;;;;;;;5023404;28;88859;-48
2022/07/16 15:14:10;;;;;;;1.40;0.83;;;;;;;;;;5023638;28;87757;-48
2022/07/16 15:16:40;;;;;;;2.40;0.90;;;;;;;;;;5023724;28;86977;-48